Time,TemperatureF,DewpointF,PressureIn,WindDirection,WindDirectionDegrees,WindSpeedMPH,WindSpeedGustMPH,Humidity,HourlyPrecipIn,Conditions,Clouds,dailyrainin,SoftwareType,DateUTC
2013-06-04 00:01:00,64.1,53.3,30.01,West,270,0.0,1.3,68,0.00,,,0.00,WUHU216HW,2013-06-04 04:01:00,
2013-06-04 00:06:00,63.9,53.2,30.01,NW,315,0.0,2.0,68,0.00,,,0.00,WUHU216HW,2013-06-04 04:06:00,
2013-06-04 00:11:00,63.7,53.0,30.02,North,0,0.9,2.0,68,0.00,,,0.00,WUHU216HW,2013-06-04 04:11:00,
2013-06-04 00:16:00,63.4,53.0,30.01,WSW,248,0.0,1.6,69,0.00,,,0.00,WUHU216HW,2013-06-04 04:16:00,
2013-06-04 00:21:00,63.0,53.1,30.02,West,270,0.7,1.3,70,0.00,,,0.00,WUHU216HW,2013-06-04 04:21:00,
2013-06-04 00:26:00,62.8,52.9,30.02,NW,315,0.4,1.3,70,0.00,,,0.00,WUHU216HW,2013-06-04 04:26:00,
2013-06-04 00:31:00,62.6,53.5,30.02,West,270,1.8,1.8,72,0.00,,,0.00,WUHU216HW,2013-06-04 04:31:00,
2013-06-04 00:36:00,62.3,52.7,30.02,NW,315,0.4,2.5,71,0.00,,,0.00,WUHU216HW,2013-06-04 04:36:00,
2013-06-04 00:42:00,62.3,52.7,30.02,West,270,1.6,2.5,71,0.00,,,0.00,WUHU216HW,2013-06-04 04:42:00,
2013-06-04 00:47:00,62.1,53.0,30.02,West,270,0.7,2.2,72,0.00,,,0.00,WUHU216HW,2013-06-04 04:47:00,
2013-06-04 00:52:00,61.9,52.5,30.02,WSW,248,0.4,1.6,71,0.00,,,0.00,WUHU216HW,2013-06-04 04:52:00,
2013-06-04 00:57:00,61.9,52.5,30.02,NW,315,0.2,1.8,71,0.00,,,0.00,WUHU216HW,2013-06-04 04:57:00,
2013-06-04 01:02:00,61.7,51.9,30.02,WNW,293,0.4,1.8,70,0.00,,,0.00,WUHU216HW,2013-06-04 05:02:00,
2013-06-04 01:07:00,61.7,51.9,30.02,NNW,338,0.0,0.7,70,0.00,,,0.00,WUHU216HW,2013-06-04 05:07:00,
2013-06-04 01:12:00,61.6,52.1,30.02,West,270,0.4,0.9,71,0.00,,,0.00,WUHU216HW,2013-06-04 05:12:00,
2013-06-04 01:17:00,61.0,52.4,30.02,West,270,0.7,1.1,73,0.00,,,0.00,WUHU216HW,2013-06-04 05:17:00,
2013-06-04 01:22:00,60.7,53.1,30.02,West,270,0.4,1.1,76,0.00,,,0.00,WUHU216HW,2013-06-04 05:22:00,
2013-06-04 01:27:00,60.3,52.0,30.02,NW,315,0.4,1.1,74,0.00,,,0.00,WUHU216HW,2013-06-04 05:27:00,
2013-06-04 01:32:00,60.3,52.0,30.02,West,270,0.7,1.1,74,0.00,,,0.00,WUHU216HW,2013-06-04 05:32:00,
2013-06-04 01:37:00,60.5,52.2,30.02,West,270,1.1,2.5,74,0.00,,,0.00,WUHU216HW,2013-06-04 05:37:00,
2013-06-04 01:42:00,60.8,52.2,30.02,NW,315,0.2,2.5,73,0.00,,,0.00,WUHU216HW,2013-06-04 05:42:00,
2013-06-04 01:47:00,60.8,51.5,30.02,NW,315,1.1,2.5,71,0.00,,,0.00,WUHU216HW,2013-06-04 05:47:00,
2013-06-04 01:52:00,60.8,51.5,30.02,NNW,338,0.0,1.3,71,0.00,,,0.00,WUHU216HW,2013-06-04 05:52:00,
2013-06-04 01:57:00,60.8,51.5,30.03,WNW,293,0.7,1.3,71,0.00,,,0.00,WUHU216HW,2013-06-04 05:57:00,
2013-06-04 02:02:00,60.5,51.5,30.03,WNW,293,0.4,0.7,72,0.00,,,0.00,WUHU216HW,2013-06-04 06:02:00,
2013-06-04 02:07:00,60.3,51.3,30.02,WNW,293,0.4,0.9,72,0.00,,,0.00,WUHU216HW,2013-06-04 06:07:00,
2013-06-04 02:12:00,60.3,51.3,30.03,West,270,0.4,0.9,72,0.00,,,0.00,WUHU216HW,2013-06-04 06:12:00,
2013-06-04 02:17:00,60.1,51.1,30.02,NNE,23,1.1,1.8,72,0.00,,,0.00,WUHU216HW,2013-06-04 06:17:00,
2013-06-04 02:22:00,60.3,50.9,30.02,North,0,1.1,1.8,71,0.00,,,0.00,WUHU216HW,2013-06-04 06:22:00,
2013-06-04 02:27:00,60.3,50.9,30.02,NNE,23,0.4,1.8,71,0.00,,,0.00,WUHU216HW,2013-06-04 06:27:00,
2013-06-04 02:32:00,60.1,50.8,30.02,NNE,23,0.4,1.1,71,0.00,,,0.00,WUHU216HW,2013-06-04 06:32:00,
2013-06-04 02:37:00,59.6,50.6,30.02,North,0,0.2,1.3,72,0.00,,,0.00,WUHU216HW,2013-06-04 06:37:00,
2013-06-04 02:42:00,59.0,50.4,30.02,NNE,23,0.2,1.3,73,0.00,,,0.00,WUHU216HW,2013-06-04 06:42:00,
2013-06-04 02:47:00,58.3,50.0,30.02,NE,45,0.4,1.1,74,0.00,,,0.00,WUHU216HW,2013-06-04 06:47:00,
2013-06-04 02:52:00,57.6,50.0,30.03,NE,45,0.0,1.1,76,0.00,,,0.00,WUHU216HW,2013-06-04 06:52:00,
2013-06-04 02:57:00,57.2,49.7,30.03,NE,45,0.0,0.4,76,0.00,,,0.00,WUHU216HW,2013-06-04 06:57:00,
2013-06-04 03:02:00,57.1,50.2,30.03,NE,45,0.0,0.0,78,0.00,,,0.00,WUHU216HW,2013-06-04 07:02:00,
2013-06-04 03:07:00,56.9,50.0,30.03,NE,45,0.0,0.7,78,0.00,,,0.00,WUHU216HW,2013-06-04 07:07:00,
2013-06-04 03:12:00,56.7,50.2,30.03,ESE,113,0.4,0.7,79,0.00,,,0.00,WUHU216HW,2013-06-04 07:12:00,
2013-06-04 03:17:00,56.7,50.2,30.03,SSE,158,0.0,0.7,79,0.00,,,0.00,WUHU216HW,2013-06-04 07:17:00,
2013-06-04 03:22:00,56.5,50.0,30.04,NE,45,1.3,1.3,79,0.00,,,0.00,WUHU216HW,2013-06-04 07:22:00,
2013-06-04 03:27:00,56.0,49.5,30.03,NNE,23,0.4,1.6,79,0.00,,,0.00,WUHU216HW,2013-06-04 07:27:00,
2013-06-04 03:32:00,55.8,49.3,30.03,North,0,0.2,1.6,79,0.00,,,0.00,WUHU216HW,2013-06-04 07:32:00,
2013-06-04 03:37:00,55.4,48.6,30.03,NNE,23,0.0,0.7,78,0.00,,,0.00,WUHU216HW,2013-06-04 07:37:00,
2013-06-04 03:42:00,55.3,49.8,30.03,ESE,113,0.4,0.9,82,0.00,,,0.00,WUHU216HW,2013-06-04 07:42:00,
2013-06-04 03:47:00,55.1,49.0,30.04,NE,45,0.4,0.9,80,0.00,,,0.00,WUHU216HW,2013-06-04 07:47:00,
2013-06-04 03:52:00,54.9,49.1,30.04,ENE,68,0.0,1.1,81,0.00,,,0.00,WUHU216HW,2013-06-04 07:52:00,
2013-06-04 03:57:00,54.9,49.1,30.03,ENE,68,0.0,2.2,81,0.00,,,0.00,WUHU216HW,2013-06-04 07:57:00,
2013-06-04 04:02:00,55.1,49.7,30.04,SE,135,1.8,2.2,82,0.00,,,0.00,WUHU216HW,2013-06-04 08:02:00,
2013-06-04 04:07:00,55.6,49.9,30.04,West,270,0.0,2.0,81,0.00,,,0.00,WUHU216HW,2013-06-04 08:07:00,
2013-06-04 04:12:00,55.3,49.5,30.04,South,180,0.0,2.0,81,0.00,,,0.00,WUHU216HW,2013-06-04 08:12:00,
2013-06-04 04:17:00,55.1,49.7,30.04,ESE,113,0.0,1.1,82,0.00,,,0.00,WUHU216HW,2013-06-04 08:17:00,
2013-06-04 04:22:00,55.1,49.7,30.04,East,90,1.1,2.0,82,0.00,,,0.00,WUHU216HW,2013-06-04 08:22:00,
2013-06-04 04:27:00,55.1,49.0,30.04,West,270,0.4,2.0,80,0.00,,,0.00,WUHU216HW,2013-06-04 08:27:00,
2013-06-04 04:32:00,54.7,49.0,30.05,ENE,68,0.0,1.8,81,0.00,,,0.00,WUHU216HW,2013-06-04 08:32:00,
2013-06-04 04:37:00,54.2,48.5,30.05,North,0,0.4,1.6,81,0.00,,,0.00,WUHU216HW,2013-06-04 08:37:00,
2013-06-04 04:42:00,53.6,48.0,30.05,NNW,338,0.4,1.8,81,0.00,,,0.00,WUHU216HW,2013-06-04 08:42:00,
2013-06-04 04:47:00,53.6,48.3,30.05,NE,45,0.9,1.8,82,0.00,,,0.00,WUHU216HW,2013-06-04 08:47:00,
2013-06-04 04:52:00,53.1,47.8,30.05,NNE,23,0.4,1.6,82,0.00,,,0.00,WUHU216HW,2013-06-04 08:52:00,
2013-06-04 04:57:00,52.9,47.6,30.06,NNE,23,0.2,1.6,82,0.00,,,0.00,WUHU216HW,2013-06-04 08:57:00,
2013-06-04 05:02:00,52.9,47.6,30.06,NNE,23,0.0,0.9,82,0.00,,,0.00,WUHU216HW,2013-06-04 09:02:00,
2013-06-04 05:07:00,52.9,47.9,30.06,NE,45,0.0,0.4,83,0.00,,,0.00,WUHU216HW,2013-06-04 09:07:00,
2013-06-04 05:12:00,53.1,48.1,30.06,ESE,113,0.0,0.4,83,0.00,,,0.00,WUHU216HW,2013-06-04 09:12:00,
2013-06-04 05:17:00,53.3,48.0,30.06,NE,45,0.9,0.9,82,0.00,,,0.00,WUHU216HW,2013-06-04 09:17:00,
2013-06-04 05:22:00,53.1,47.8,30.06,NE,45,0.7,0.9,82,0.00,,,0.00,WUHU216HW,2013-06-04 09:22:00,
2013-06-04 05:27:00,52.7,47.4,30.06,NE,45,0.4,1.1,82,0.00,,,0.00,WUHU216HW,2013-06-04 09:27:00,
2013-06-04 05:32:00,52.6,47.9,30.07,NE,45,1.1,1.1,84,0.00,,,0.00,WUHU216HW,2013-06-04 09:32:00,
2013-06-04 05:37:00,52.2,47.2,30.07,ENE,68,0.0,1.1,83,0.00,,,0.00,WUHU216HW,2013-06-04 09:37:00,
2013-06-04 05:42:00,52.2,47.2,30.07,ENE,68,0.0,1.1,83,0.00,,,0.00,WUHU216HW,2013-06-04 09:42:00,
2013-06-04 05:47:00,52.2,47.2,30.07,NNE,23,0.9,0.9,83,0.00,,,0.00,WUHU216HW,2013-06-04 09:47:00,
2013-06-04 05:52:00,52.6,47.3,30.08,NNW,338,0.7,2.9,82,0.00,,,0.00,WUHU216HW,2013-06-04 09:52:00,
2013-06-04 05:57:00,53.3,47.3,30.08,North,0,2.0,2.9,80,0.00,,,0.00,WUHU216HW,2013-06-04 09:57:00,
2013-06-04 06:02:00,53.5,46.8,30.08,ENE,68,0.7,2.5,78,0.00,,,0.00,WUHU216HW,2013-06-04 10:02:00,
2013-06-04 06:07:00,53.3,46.6,30.09,ENE,68,0.2,1.3,78,0.00,,,0.00,WUHU216HW,2013-06-04 10:07:00,
2013-06-04 06:12:00,53.5,46.8,30.09,NW,315,0.2,1.3,78,0.00,,,0.00,WUHU216HW,2013-06-04 10:12:00,
2013-06-04 06:17:00,53.8,47.2,30.09,NNE,23,0.4,0.9,78,0.00,,,0.00,WUHU216HW,2013-06-04 10:17:00,
2013-06-04 06:22:00,54.5,47.8,30.09,WNW,293,0.2,0.9,78,0.00,,,0.00,WUHU216HW,2013-06-04 10:22:00,
2013-06-04 06:27:00,55.1,48.0,30.09,WSW,248,0.4,2.0,77,0.00,,,0.00,WUHU216HW,2013-06-04 10:27:00,
2013-06-04 06:32:00,55.4,48.0,30.10,WNW,293,1.8,2.2,76,0.00,,,0.00,WUHU216HW,2013-06-04 10:32:00,
2013-06-04 06:37:00,55.6,47.4,30.09,SW,225,0.9,2.7,74,0.00,,,0.00,WUHU216HW,2013-06-04 10:37:00,
2013-06-04 06:42:00,56.2,47.3,30.10,West,270,1.3,2.7,72,0.00,,,0.00,WUHU216HW,2013-06-04 10:42:00,
2013-06-04 06:47:00,56.5,47.6,30.10,NW,315,1.8,3.4,72,0.00,,,0.00,WUHU216HW,2013-06-04 10:47:00,
2013-06-04 06:52:00,56.9,46.8,30.10,North,0,1.3,4.3,69,0.00,,,0.00,WUHU216HW,2013-06-04 10:52:00,
2013-06-04 06:57:00,57.4,47.4,30.10,North,0,0.7,4.3,69,0.00,,,0.00,WUHU216HW,2013-06-04 10:57:00,
2013-06-04 07:02:00,57.6,46.7,30.10,West,270,2.5,2.5,67,0.00,,,0.00,WUHU216HW,2013-06-04 11:02:00,
2013-06-04 07:07:00,57.6,47.1,30.10,North,0,1.1,2.5,68,0.00,,,0.00,WUHU216HW,2013-06-04 11:07:00,
2013-06-04 07:12:00,58.1,46.4,30.11,North,0,2.7,3.4,65,0.00,,,0.00,WUHU216HW,2013-06-04 11:12:00,
2013-06-04 07:17:00,58.3,45.4,30.11,NW,315,0.9,3.4,62,0.00,,,0.00,WUHU216HW,2013-06-04 11:17:00,
2013-06-04 07:22:00,58.3,45.4,30.11,NW,315,1.1,5.8,62,0.00,,,0.00,WUHU216HW,2013-06-04 11:22:00,
2013-06-04 07:27:00,58.7,45.7,30.12,North,0,1.8,5.8,62,0.00,,,0.00,WUHU216HW,2013-06-04 11:27:00,
2013-06-04 07:32:00,59.0,46.0,30.12,NNW,338,2.2,3.8,62,0.00,,,0.00,WUHU216HW,2013-06-04 11:32:00,
2013-06-04 07:37:00,59.4,46.0,30.12,WNW,293,0.0,3.8,61,0.00,,,0.00,WUHU216HW,2013-06-04 11:37:00,
2013-06-04 07:42:00,59.8,46.4,30.12,NE,45,2.7,4.3,61,0.00,,,0.00,WUHU216HW,2013-06-04 11:42:00,
2013-06-04 07:47:00,59.9,46.1,30.12,NE,45,2.5,4.3,60,0.00,,,0.00,WUHU216HW,2013-06-04 11:47:00,
2013-06-04 07:52:00,59.9,45.6,30.12,North,0,1.8,3.4,59,0.00,,,0.00,WUHU216HW,2013-06-04 11:52:00,
2013-06-04 07:57:00,60.3,45.5,30.13,NNE,23,3.1,5.1,58,0.00,,,0.00,WUHU216HW,2013-06-04 11:57:00,
2013-06-04 08:02:00,60.5,45.2,30.13,NNE,23,3.4,5.1,57,0.00,,,0.00,WUHU216HW,2013-06-04 12:02:00,
2013-06-04 08:07:00,60.7,44.4,30.13,WNW,293,4.3,6.9,55,0.00,,,0.00,WUHU216HW,2013-06-04 12:07:00,
2013-06-04 08:12:00,60.8,45.0,30.13,WNW,293,2.2,6.9,56,0.00,,,0.00,WUHU216HW,2013-06-04 12:12:00,
2013-06-04 08:17:00,60.8,43.6,30.13,WNW,293,1.8,5.4,53,0.00,,,0.00,WUHU216HW,2013-06-04 12:17:00,
2013-06-04 08:22:00,60.8,45.0,30.14,NW,315,2.5,4.7,56,0.00,,,0.00,WUHU216HW,2013-06-04 12:22:00,
2013-06-04 08:27:00,61.0,45.2,30.14,West,270,1.6,5.4,56,0.00,,,0.00,WUHU216HW,2013-06-04 12:27:00,
2013-06-04 08:32:00,61.6,45.7,30.14,SSE,158,0.2,5.4,56,0.00,,,0.00,WUHU216HW,2013-06-04 12:32:00,
2013-06-04 08:37:00,62.3,45.8,30.14,North,0,1.1,4.0,55,0.00,,,0.00,WUHU216HW,2013-06-04 12:37:00,
2013-06-04 08:42:00,62.3,44.9,30.14,NE,45,5.4,6.0,53,0.00,,,0.00,WUHU216HW,2013-06-04 12:42:00,
2013-06-04 08:47:00,62.3,45.4,30.14,North,0,1.6,6.0,54,0.00,,,0.00,WUHU216HW,2013-06-04 12:47:00,
2013-06-04 08:52:00,62.8,44.9,30.14,North,0,5.1,5.1,52,0.00,,,0.00,WUHU216HW,2013-06-04 12:52:00,
2013-06-04 08:57:00,63.0,45.6,30.14,East,90,3.4,5.1,53,0.00,,,0.00,WUHU216HW,2013-06-04 12:57:00,
2013-06-04 09:02:00,63.2,45.7,30.14,North,0,2.2,5.1,53,0.00,,,0.00,WUHU216HW,2013-06-04 13:02:00,
2013-06-04 09:07:00,63.7,45.7,30.15,ENE,68,0.2,4.0,52,0.00,,,0.00,WUHU216HW,2013-06-04 13:07:00,
2013-06-04 09:12:00,63.5,44.6,30.15,NE,45,6.9,6.9,50,0.00,,,0.00,WUHU216HW,2013-06-04 13:12:00,
2013-06-04 09:17:00,63.4,44.9,30.15,North,0,3.4,6.9,51,0.00,,,0.00,WUHU216HW,2013-06-04 13:17:00,
2013-06-04 09:22:00,63.7,45.2,30.15,North,0,4.0,6.9,51,0.00,,,0.00,WUHU216HW,2013-06-04 13:22:00,
2013-06-04 09:27:00,63.9,44.3,30.15,North,0,2.9,5.4,49,0.00,,,0.00,WUHU216HW,2013-06-04 13:27:00,
2013-06-04 09:32:00,63.4,44.4,30.15,NE,45,7.6,7.6,50,0.00,,,0.00,WUHU216HW,2013-06-04 13:32:00,
2013-06-04 09:37:00,63.4,44.9,30.15,WNW,293,1.1,7.6,51,0.00,,,0.00,WUHU216HW,2013-06-04 13:37:00,
2013-06-04 09:42:00,63.9,45.4,30.15,NNW,338,4.7,6.9,51,0.00,,,0.00,WUHU216HW,2013-06-04 13:42:00,
2013-06-04 09:47:00,64.3,45.7,30.16,NNE,23,6.3,6.9,51,0.00,,,0.00,WUHU216HW,2013-06-04 13:47:00,
2013-06-04 09:52:00,64.4,45.4,30.15,NNW,338,0.9,6.3,50,0.00,,,0.00,WUHU216HW,2013-06-04 13:52:00,
2013-06-04 09:57:00,64.4,44.8,30.16,NNW,338,1.6,6.3,49,0.00,,,0.00,WUHU216HW,2013-06-04 13:57:00,
2013-06-04 10:02:00,64.8,45.2,30.16,NW,315,2.7,5.1,49,0.00,,,0.00,WUHU216HW,2013-06-04 14:02:00,
2013-06-04 10:07:00,65.0,44.7,30.16,WSW,248,1.6,4.7,48,0.00,,,0.00,WUHU216HW,2013-06-04 14:07:00,
2013-06-04 10:12:00,65.5,46.4,30.15,West,270,1.3,3.8,50,0.00,,,0.00,WUHU216HW,2013-06-04 14:12:00,
2013-06-04 10:17:00,65.9,46.8,30.15,NNW,338,2.5,5.4,50,0.00,,,0.00,WUHU216HW,2013-06-04 14:17:00,
2013-06-04 10:22:00,66.1,47.0,30.15,NE,45,4.0,6.7,50,0.00,,,0.00,WUHU216HW,2013-06-04 14:22:00,
2013-06-04 10:27:00,65.9,46.2,30.15,NE,45,4.3,6.7,49,0.00,,,0.00,WUHU216HW,2013-06-04 14:27:00,
2013-06-04 10:32:00,66.4,48.3,30.15,North,0,2.0,4.9,52,0.00,,,0.00,WUHU216HW,2013-06-04 14:32:00,
2013-06-04 10:37:00,66.6,46.3,30.15,NE,45,4.5,6.3,48,0.00,,,0.00,WUHU216HW,2013-06-04 14:37:00,
2013-06-04 10:42:00,66.4,46.2,30.15,North,0,4.0,7.8,48,0.00,,,0.00,WUHU216HW,2013-06-04 14:42:00,
2013-06-04 10:47:00,65.7,44.8,30.15,ENE,68,4.0,10.5,47,0.00,,,0.00,WUHU216HW,2013-06-04 14:47:00,
2013-06-04 10:52:00,66.2,46.0,30.15,North,0,3.8,10.5,48,0.00,,,0.00,WUHU216HW,2013-06-04 14:52:00,
2013-06-04 10:57:00,66.8,45.9,30.15,SW,225,2.5,6.5,47,0.00,,,0.00,WUHU216HW,2013-06-04 14:57:00,
2013-06-04 11:02:00,66.6,46.3,30.15,NE,45,9.6,9.6,48,0.00,,,0.00,WUHU216HW,2013-06-04 15:02:00,
2013-06-04 11:07:00,66.6,45.7,30.15,North,0,5.4,9.6,47,0.00,,,0.00,WUHU216HW,2013-06-04 15:07:00,
2013-06-04 11:12:00,67.1,44.4,30.15,WSW,248,0.9,9.6,44,0.00,,,0.00,WUHU216HW,2013-06-04 15:12:00,
2013-06-04 11:17:00,67.9,44.5,30.15,ENE,68,2.5,5.4,43,0.00,,,0.00,WUHU216HW,2013-06-04 15:17:00,
2013-06-04 11:23:00,67.7,44.9,30.15,SSW,203,1.8,4.9,44,0.00,,,0.00,WUHU216HW,2013-06-04 15:23:00,
2013-06-04 11:28:00,67.5,45.9,30.15,ENE,68,2.0,4.9,46,0.00,,,0.00,WUHU216HW,2013-06-04 15:28:00,
2013-06-04 11:33:00,68.0,47.0,30.15,NNW,338,0.4,3.6,47,0.00,,,0.00,WUHU216HW,2013-06-04 15:33:00,
2013-06-04 11:38:00,68.4,47.4,30.15,NNE,23,6.3,6.3,47,0.00,,,0.00,WUHU216HW,2013-06-04 15:38:00,
2013-06-04 11:43:00,68.0,45.8,30.15,SE,135,1.3,7.8,45,0.00,,,0.00,WUHU216HW,2013-06-04 15:43:00,
2013-06-04 11:48:00,67.7,46.1,30.15,North,0,5.8,7.8,46,0.00,,,0.00,WUHU216HW,2013-06-04 15:48:00,
2013-06-04 11:53:00,68.4,46.2,30.15,NE,45,2.7,7.6,45,0.00,,,0.00,WUHU216HW,2013-06-04 15:53:00,
2013-06-04 11:58:00,68.6,46.9,30.15,ENE,68,4.5,5.8,46,0.00,,,0.00,WUHU216HW,2013-06-04 15:58:00,
2013-06-04 12:03:00,68.2,44.2,30.14,SW,225,3.1,4.9,42,0.00,,,0.00,WUHU216HW,2013-06-04 16:03:00,
2013-06-04 12:08:00,68.2,46.0,30.14,ESE,113,4.7,7.6,45,0.00,,,0.00,WUHU216HW,2013-06-04 16:08:00,
2013-06-04 12:13:00,68.4,47.4,30.14,NE,45,7.6,7.6,47,0.00,,,0.00,WUHU216HW,2013-06-04 16:13:00,
2013-06-04 12:18:00,68.4,46.2,30.14,ESE,113,4.0,9.4,45,0.00,,,0.00,WUHU216HW,2013-06-04 16:18:00,
2013-06-04 12:23:00,68.4,46.2,30.14,NW,315,1.1,9.4,45,0.00,,,0.00,WUHU216HW,2013-06-04 16:23:00,
2013-06-04 12:28:00,69.1,48.0,30.14,NE,45,4.0,5.8,47,0.00,,,0.00,WUHU216HW,2013-06-04 16:28:00,
2013-06-04 12:33:00,69.5,48.9,30.14,East,90,2.9,5.4,48,0.00,,,0.00,WUHU216HW,2013-06-04 16:33:00,
2013-06-04 12:38:00,68.9,46.0,30.14,East,90,3.6,5.6,44,0.00,,,0.00,WUHU216HW,2013-06-04 16:38:00,
2013-06-04 12:43:00,68.9,47.3,30.14,ENE,68,3.4,5.6,46,0.00,,,0.00,WUHU216HW,2013-06-04 16:43:00,
2013-06-04 12:48:00,69.5,48.3,30.14,ENE,68,5.4,7.6,47,0.00,,,0.00,WUHU216HW,2013-06-04 16:48:00,
2013-06-04 12:53:00,69.3,47.0,30.13,ENE,68,2.0,9.2,45,0.00,,,0.00,WUHU216HW,2013-06-04 16:53:00,
2013-06-04 12:58:00,69.8,48.1,30.14,NE,45,4.0,9.2,46,0.00,,,0.00,WUHU216HW,2013-06-04 16:58:00,
2013-06-04 13:03:00,70.0,44.7,30.13,SE,135,0.7,4.5,40,0.00,,,0.00,WUHU216HW,2013-06-04 17:03:00,
2013-06-04 13:08:00,70.2,47.8,30.13,SE,135,0.9,4.5,45,0.00,,,0.00,WUHU216HW,2013-06-04 17:08:00,
2013-06-04 13:13:00,70.2,47.8,30.13,NE,45,2.9,4.3,45,0.00,,,0.00,WUHU216HW,2013-06-04 17:13:00,
2013-06-04 13:18:00,70.6,48.1,30.12,ENE,68,1.3,4.3,45,0.00,,,0.00,WUHU216HW,2013-06-04 17:18:00,
2013-06-04 13:23:00,70.4,47.9,30.12,North,0,0.9,4.7,45,0.00,,,0.00,WUHU216HW,2013-06-04 17:23:00,
2013-06-04 13:28:00,70.7,49.4,30.12,NE,45,3.4,7.2,47,0.00,,,0.00,WUHU216HW,2013-06-04 17:28:00,
2013-06-04 13:33:00,70.9,49.0,30.12,ESE,113,0.4,7.2,46,0.00,,,0.00,WUHU216HW,2013-06-04 17:33:00,
2013-06-04 13:38:00,70.7,48.9,30.12,ENE,68,4.5,6.7,46,0.00,,,0.00,WUHU216HW,2013-06-04 17:38:00,
2013-06-04 13:43:00,70.6,49.2,30.12,East,90,4.3,6.3,47,0.00,,,0.00,WUHU216HW,2013-06-04 17:43:00,
2013-06-04 13:48:00,70.6,48.7,30.12,North,0,5.1,6.3,46,0.00,,,0.00,WUHU216HW,2013-06-04 17:48:00,
2013-06-04 13:53:00,70.9,45.5,30.12,WSW,248,1.8,6.3,40,0.00,,,0.00,WUHU216HW,2013-06-04 17:53:00,
2013-06-04 13:58:00,71.6,49.1,30.12,WNW,293,3.6,6.0,45,0.00,,,0.00,WUHU216HW,2013-06-04 17:58:00,
2013-06-04 14:03:00,72.2,47.8,30.12,North,0,1.6,4.7,42,0.00,,,0.00,WUHU216HW,2013-06-04 18:03:00,
2013-06-04 14:08:00,72.0,45.6,30.12,SE,135,1.8,4.7,39,0.00,,,0.00,WUHU216HW,2013-06-04 18:08:00,
2013-06-04 14:13:00,71.6,47.3,30.11,WSW,248,2.0,5.4,42,0.00,,,0.00,WUHU216HW,2013-06-04 18:13:00,
2013-06-04 14:18:00,71.8,45.6,30.11,SSW,203,1.8,5.4,39,0.00,,,0.00,WUHU216HW,2013-06-04 18:18:00,
2013-06-04 14:23:00,72.0,46.5,30.11,SW,225,3.1,3.8,40,0.00,,,0.00,WUHU216HW,2013-06-04 18:23:00,
2013-06-04 14:28:00,72.4,47.4,30.11,South,180,1.8,5.8,41,0.00,,,0.00,WUHU216HW,2013-06-04 18:28:00,
2013-06-04 14:33:00,72.4,49.2,30.11,ESE,113,3.4,7.8,44,0.00,,,0.00,WUHU216HW,2013-06-04 18:33:00,
2013-06-04 14:38:00,72.2,47.2,30.11,NE,45,1.3,7.8,41,0.00,,,0.00,WUHU216HW,2013-06-04 18:38:00,
2013-06-04 14:43:00,72.4,49.2,30.11,North,0,1.6,5.1,44,0.00,,,0.00,WUHU216HW,2013-06-04 18:43:00,
2013-06-04 14:48:00,72.7,50.6,30.11,ESE,113,4.3,4.3,46,0.00,,,0.00,WUHU216HW,2013-06-04 18:48:00,
2013-06-04 14:53:00,72.7,46.3,30.11,SE,135,1.1,4.5,39,0.00,,,0.00,WUHU216HW,2013-06-04 18:53:00,
2013-06-04 14:58:00,72.4,46.7,30.11,ESE,113,0.4,5.4,40,0.00,,,0.00,WUHU216HW,2013-06-04 18:58:00,
2013-06-04 15:03:00,72.5,45.4,30.11,SSE,158,4.5,5.4,38,0.00,,,0.00,WUHU216HW,2013-06-04 19:03:00,
2013-06-04 15:08:00,72.9,46.4,30.11,WSW,248,3.1,4.7,39,0.00,,,0.00,WUHU216HW,2013-06-04 19:08:00,
2013-06-04 15:13:00,73.4,46.2,30.11,WNW,293,1.1,5.6,38,0.00,,,0.00,WUHU216HW,2013-06-04 19:13:00,
2013-06-04 15:18:00,73.8,44.3,30.11,SSE,158,1.1,5.6,35,0.00,,,0.00,WUHU216HW,2013-06-04 19:18:00,
2013-06-04 15:23:00,74.0,47.4,30.11,NNE,23,2.7,4.0,39,0.00,,,0.00,WUHU216HW,2013-06-04 19:23:00,
2013-06-04 15:28:00,74.5,48.7,30.11,NE,45,1.8,4.0,40,0.00,,,0.00,WUHU216HW,2013-06-04 19:28:00,
2013-06-04 15:33:00,74.2,47.6,30.11,West,270,1.8,3.8,39,0.00,,,0.00,WUHU216HW,2013-06-04 19:33:00,
2013-06-04 15:38:00,73.8,46.5,30.11,WNW,293,6.5,6.5,38,0.00,,,0.00,WUHU216HW,2013-06-04 19:38:00,
2013-06-04 15:43:00,73.4,46.2,30.11,West,270,5.6,7.6,38,0.00,,,0.00,WUHU216HW,2013-06-04 19:43:00,
2013-06-04 15:48:00,73.8,47.3,30.11,ESE,113,0.9,7.6,39,0.00,,,0.00,WUHU216HW,2013-06-04 19:48:00,
2013-06-04 15:53:00,74.5,47.9,30.11,NE,45,2.7,6.0,39,0.00,,,0.00,WUHU216HW,2013-06-04 19:53:00,
2013-06-04 15:58:00,75.1,49.8,30.11,WNW,293,1.1,4.0,41,0.00,,,0.00,WUHU216HW,2013-06-04 19:58:00,
2013-06-04 16:03:00,75.4,49.5,30.10,NW,315,2.5,4.0,40,0.00,,,0.00,WUHU216HW,2013-06-04 20:03:00,
2013-06-04 16:08:00,75.2,47.8,30.10,West,270,4.9,5.4,38,0.00,,,0.00,WUHU216HW,2013-06-04 20:08:00,
2013-06-04 16:13:00,74.9,47.5,30.10,South,180,2.5,6.3,38,0.00,,,0.00,WUHU216HW,2013-06-04 20:13:00,
2013-06-04 16:18:00,74.3,47.8,30.10,WSW,248,4.3,6.3,39,0.00,,,0.00,WUHU216HW,2013-06-04 20:18:00,
2013-06-04 16:23:00,74.3,47.8,30.10,NW,315,1.3,5.4,39,0.00,,,0.00,WUHU216HW,2013-06-04 20:23:00,
2013-06-04 16:28:00,74.9,46.7,30.10,West,270,2.2,5.4,37,0.00,,,0.00,WUHU216HW,2013-06-04 20:28:00,
2013-06-04 16:33:00,75.6,48.2,30.10,East,90,2.5,2.5,38,0.00,,,0.00,WUHU216HW,2013-06-04 20:33:00,
2013-06-04 16:38:00,75.6,47.3,30.10,WSW,248,3.4,3.4,37,0.00,,,0.00,WUHU216HW,2013-06-04 20:38:00,
2013-06-04 16:43:00,75.2,47.1,30.09,SW,225,4.0,4.5,37,0.00,,,0.00,WUHU216HW,2013-06-04 20:43:00,
2013-06-04 16:48:00,74.7,47.4,30.09,SE,135,2.7,5.4,38,0.00,,,0.00,WUHU216HW,2013-06-04 20:48:00,
2013-06-04 16:53:00,74.7,47.4,30.09,South,180,0.9,5.4,38,0.00,,,0.00,WUHU216HW,2013-06-04 20:53:00,
2013-06-04 16:58:00,74.7,48.1,30.09,WSW,248,2.9,4.3,39,0.00,,,0.00,WUHU216HW,2013-06-04 20:58:00,
2013-06-04 17:03:00,74.5,46.5,30.09,South,180,1.8,5.4,37,0.00,,,0.00,WUHU216HW,2013-06-04 21:03:00,
2013-06-04 17:08:00,74.5,47.9,30.09,SW,225,1.8,5.4,39,0.00,,,0.00,WUHU216HW,2013-06-04 21:08:00,
2013-06-04 17:13:00,74.5,47.2,30.09,SSW,203,1.1,3.6,38,0.00,,,0.00,WUHU216HW,2013-06-04 21:13:00,
2013-06-04 17:18:00,74.5,48.7,30.09,NNW,338,0.4,3.6,40,0.00,,,0.00,WUHU216HW,2013-06-04 21:18:00,
2013-06-04 17:23:00,75.2,49.3,30.09,West,270,0.4,2.9,40,0.00,,,0.00,WUHU216HW,2013-06-04 21:23:00,
2013-06-04 17:28:00,75.8,47.5,30.09,NNW,338,2.5,5.1,37,0.00,,,0.00,WUHU216HW,2013-06-04 21:28:00,
2013-06-04 17:33:00,75.1,47.6,30.09,West,270,2.7,6.0,38,0.00,,,0.00,WUHU216HW,2013-06-04 21:33:00,
2013-06-04 17:38:00,74.9,47.5,30.08,WNW,293,1.8,6.0,38,0.00,,,0.00,WUHU216HW,2013-06-04 21:38:00,
2013-06-04 17:43:00,75.2,47.8,30.09,SW,225,1.1,3.4,38,0.00,,,0.00,WUHU216HW,2013-06-04 21:43:00,
2013-06-04 17:48:00,75.4,49.5,30.09,West,270,2.2,4.0,40,0.00,,,0.00,WUHU216HW,2013-06-04 21:48:00,
2013-06-04 17:53:00,75.4,48.0,30.09,West,270,2.0,4.0,38,0.00,,,0.00,WUHU216HW,2013-06-04 21:53:00,
2013-06-04 17:58:00,75.4,48.7,30.09,West,270,1.8,4.0,39,0.00,,,0.00,WUHU216HW,2013-06-04 21:58:00,
2013-06-04 18:03:00,76.0,48.4,30.09,SSE,158,0.7,2.0,38,0.00,,,0.00,WUHU216HW,2013-06-04 22:03:00,
2013-06-04 18:08:00,75.6,48.2,30.09,SSW,203,2.7,3.4,38,0.00,,,0.00,WUHU216HW,2013-06-04 22:08:00,
2013-06-04 18:13:00,74.9,46.7,30.08,WSW,248,1.8,3.4,37,0.00,,,0.00,WUHU216HW,2013-06-04 22:13:00,
2013-06-04 18:18:00,75.1,47.6,30.08,SW,225,0.7,2.7,38,0.00,,,0.00,WUHU216HW,2013-06-04 22:18:00,
2013-06-04 18:23:00,75.4,49.5,30.08,SW,225,0.9,2.0,40,0.00,,,0.00,WUHU216HW,2013-06-04 22:23:00,
2013-06-04 18:28:00,76.0,48.4,30.08,SSW,203,0.2,3.4,38,0.00,,,0.00,WUHU216HW,2013-06-04 22:28:00,
2013-06-04 18:33:00,75.4,48.0,30.08,SSW,203,1.8,3.4,38,0.00,,,0.00,WUHU216HW,2013-06-04 22:33:00,
2013-06-04 18:38:00,75.1,46.9,30.08,SW,225,1.8,3.4,37,0.00,,,0.00,WUHU216HW,2013-06-04 22:38:00,
2013-06-04 18:43:00,74.9,47.5,30.08,SW,225,0.9,2.7,38,0.00,,,0.00,WUHU216HW,2013-06-04 22:43:00,
2013-06-04 18:48:00,74.7,48.1,30.09,SSE,158,0.4,2.7,39,0.00,,,0.00,WUHU216HW,2013-06-04 22:48:00,
2013-06-04 18:53:00,74.7,48.1,30.09,SW,225,0.0,1.8,39,0.00,,,0.00,WUHU216HW,2013-06-04 22:53:00,
2013-06-04 18:58:00,75.1,49.1,30.09,SW,225,0.4,1.1,40,0.00,,,0.00,WUHU216HW,2013-06-04 22:58:00,
2013-06-04 19:03:00,74.7,47.4,30.09,SSW,203,0.4,1.3,38,0.00,,,0.00,WUHU216HW,2013-06-04 23:03:00,
2013-06-04 19:08:00,74.7,49.4,30.09,SSE,158,0.4,1.3,41,0.00,,,0.00,WUHU216HW,2013-06-04 23:08:00,
2013-06-04 19:13:00,74.5,47.9,30.09,SSE,158,0.0,1.1,39,0.00,,,0.00,WUHU216HW,2013-06-04 23:13:00,
2013-06-04 19:18:00,74.7,48.1,30.09,SE,135,0.9,0.9,39,0.00,,,0.00,WUHU216HW,2013-06-04 23:18:00,
2013-06-04 19:23:00,74.5,48.7,30.09,ESE,113,1.8,1.8,40,0.00,,,0.00,WUHU216HW,2013-06-04 23:23:00,
2013-06-04 19:28:00,74.0,49.4,30.09,NE,45,1.8,1.8,42,0.00,,,0.00,WUHU216HW,2013-06-04 23:28:00,
2013-06-04 19:33:00,73.4,50.0,30.09,ENE,68,2.5,2.5,44,0.00,,,0.00,WUHU216HW,2013-06-04 23:33:00,
2013-06-04 19:38:00,72.9,49.6,30.09,ENE,68,1.3,2.5,44,0.00,,,0.00,WUHU216HW,2013-06-04 23:38:00,
2013-06-04 19:43:00,72.7,50.1,30.09,ESE,113,0.4,2.5,45,0.00,,,0.00,WUHU216HW,2013-06-04 23:43:00,
2013-06-04 19:48:00,72.9,50.2,30.10,SE,135,0.7,1.8,45,0.00,,,0.00,WUHU216HW,2013-06-04 23:48:00,
2013-06-04 19:53:00,72.7,50.1,30.10,SE,135,0.7,1.6,45,0.00,,,0.00,WUHU216HW,2013-06-04 23:53:00,
2013-06-04 19:58:00,72.0,52.4,30.10,South,180,0.4,1.1,50,0.00,,,0.00,WUHU216HW,2013-06-04 23:58:00,
2013-06-04 20:03:00,71.3,52.2,30.10,SSW,203,0.2,1.1,51,0.00,,,0.00,WUHU216HW,2013-06-05 00:03:00,
2013-06-04 20:08:00,70.6,52.0,30.10,WSW,248,0.4,0.4,52,0.00,,,0.00,WUHU216HW,2013-06-05 00:08:00,
2013-06-04 20:13:00,69.8,51.0,30.10,WSW,248,0.0,0.4,51,0.00,,,0.00,WUHU216HW,2013-06-05 00:13:00,
2013-06-04 20:18:00,68.9,51.6,30.10,WNW,293,0.4,0.4,54,0.00,,,0.00,WUHU216HW,2013-06-05 00:18:00,
2013-06-04 20:23:00,67.7,51.8,30.10,NNE,23,0.4,0.4,57,0.00,,,0.00,WUHU216HW,2013-06-05 00:23:00,
2013-06-04 20:28:00,66.4,52.6,30.10,NNE,23,1.1,1.1,61,0.00,,,0.00,WUHU216HW,2013-06-05 00:28:00,
2013-06-04 20:33:00,65.5,53.0,30.10,NNE,23,0.7,1.1,64,0.00,,,0.00,WUHU216HW,2013-06-05 00:33:00,
2013-06-04 20:38:00,64.8,53.2,30.10,NNE,23,1.3,1.3,66,0.00,,,0.00,WUHU216HW,2013-06-05 00:38:00,
2013-06-04 20:43:00,64.1,53.7,30.10,NE,45,1.1,1.3,69,0.00,,,0.00,WUHU216HW,2013-06-05 00:43:00,
2013-06-04 20:48:00,63.4,53.5,30.10,NE,45,0.2,1.3,70,0.00,,,0.00,WUHU216HW,2013-06-05 00:48:00,
2013-06-04 20:53:00,62.8,52.9,30.10,NE,45,0.4,1.1,70,0.00,,,0.00,WUHU216HW,2013-06-05 00:53:00,
2013-06-04 20:58:00,62.3,53.1,30.10,NE,45,0.9,1.1,72,0.00,,,0.00,WUHU216HW,2013-06-05 00:58:00,
2013-06-04 21:03:00,61.9,52.5,30.11,NNE,23,0.9,1.1,71,0.00,,,0.00,WUHU216HW,2013-06-05 01:03:00,
2013-06-04 21:08:00,61.4,52.7,30.11,NE,45,0.9,1.1,73,0.00,,,0.00,WUHU216HW,2013-06-05 01:08:00,
2013-06-04 21:13:00,61.0,52.4,30.11,NNE,23,0.9,1.1,73,0.00,,,0.00,WUHU216HW,2013-06-05 01:13:00,
2013-06-04 21:18:00,60.7,52.4,30.11,NE,45,1.1,1.3,74,0.00,,,0.00,WUHU216HW,2013-06-05 01:18:00,
2013-06-04 21:23:00,60.1,52.2,30.11,NE,45,0.7,1.3,75,0.00,,,0.00,WUHU216HW,2013-06-05 01:23:00,
2013-06-04 21:28:00,59.6,52.0,30.12,NE,45,0.4,1.1,76,0.00,,,0.00,WUHU216HW,2013-06-05 01:28:00,
2013-06-04 21:33:00,59.2,51.7,30.12,NE,45,0.0,0.9,76,0.00,,,0.00,WUHU216HW,2013-06-05 01:33:00,
2013-06-04 21:38:00,59.0,51.5,30.12,NE,45,0.4,0.9,76,0.00,,,0.00,WUHU216HW,2013-06-05 01:38:00,
2013-06-04 21:43:00,58.9,51.3,30.12,NE,45,0.9,0.9,76,0.00,,,0.00,WUHU216HW,2013-06-05 01:43:00,
2013-06-04 21:48:00,58.7,51.1,30.12,NE,45,0.4,0.9,76,0.00,,,0.00,WUHU216HW,2013-06-05 01:48:00,
2013-06-04 21:53:00,58.7,51.1,30.13,NE,45,0.7,0.7,76,0.00,,,0.00,WUHU216HW,2013-06-05 01:53:00,
2013-06-04 21:58:00,58.3,52.2,30.13,ESE,113,0.4,4.0,80,0.00,,,0.00,WUHU216HW,2013-06-05 01:58:00,
2013-06-04 22:03:00,59.0,52.6,30.14,ESE,113,1.3,4.0,79,0.00,,,0.00,WUHU216HW,2013-06-05 02:03:00,
2013-06-04 22:08:00,59.2,52.0,30.14,West,270,1.1,2.0,77,0.00,,,0.00,WUHU216HW,2013-06-05 02:08:00,
2013-06-04 22:13:00,59.0,51.1,30.14,NNE,23,0.0,1.3,75,0.00,,,0.00,WUHU216HW,2013-06-05 02:13:00,
2013-06-04 22:18:00,58.7,50.8,30.14,NNE,23,0.4,1.1,75,0.00,,,0.00,WUHU216HW,2013-06-05 02:18:00,
2013-06-04 22:23:00,58.3,50.4,30.14,NNE,23,0.0,0.7,75,0.00,,,0.00,WUHU216HW,2013-06-05 02:23:00,
2013-06-04 22:28:00,58.0,50.4,30.14,NE,45,0.0,0.7,76,0.00,,,0.00,WUHU216HW,2013-06-05 02:28:00,
2013-06-04 22:33:00,58.0,51.8,30.14,East,90,0.2,0.9,80,0.00,,,0.00,WUHU216HW,2013-06-05 02:33:00,
2013-06-04 22:38:00,58.0,50.8,30.14,East,90,0.0,0.9,77,0.00,,,0.00,WUHU216HW,2013-06-05 02:38:00,
2013-06-04 22:43:00,57.6,50.4,30.15,NE,45,0.7,1.1,77,0.00,,,0.00,WUHU216HW,2013-06-05 02:43:00,
2013-06-04 22:48:00,57.2,50.4,30.14,NE,45,0.4,1.1,78,0.00,,,0.00,WUHU216HW,2013-06-05 02:48:00,
2013-06-04 22:53:00,56.9,50.8,30.14,NE,45,0.4,0.7,80,0.00,,,0.00,WUHU216HW,2013-06-05 02:53:00,
2013-06-04 22:58:00,56.7,50.6,30.14,East,90,0.0,0.7,80,0.00,,,0.00,WUHU216HW,2013-06-05 02:58:00,
2013-06-04 23:03:00,56.9,50.4,30.14,East,90,0.0,0.7,79,0.00,,,0.00,WUHU216HW,2013-06-05 03:03:00,
2013-06-04 23:08:00,56.5,50.0,30.14,East,90,0.0,0.4,79,0.00,,,0.00,WUHU216HW,2013-06-05 03:08:00,
2013-06-04 23:13:00,56.3,49.9,30.14,East,90,0.0,0.4,79,0.00,,,0.00,WUHU216HW,2013-06-05 03:13:00,
2013-06-04 23:18:00,56.2,50.0,30.14,East,90,0.0,0.4,80,0.00,,,0.00,WUHU216HW,2013-06-05 03:18:00,
2013-06-04 23:23:00,56.0,50.2,30.14,NE,45,0.9,0.9,81,0.00,,,0.00,WUHU216HW,2013-06-05 03:23:00,
2013-06-04 23:28:00,55.8,50.1,30.14,NNE,23,0.4,1.1,81,0.00,,,0.00,WUHU216HW,2013-06-05 03:28:00,
2013-06-04 23:33:00,55.8,50.1,30.14,NNE,23,0.0,1.1,81,0.00,,,0.00,WUHU216HW,2013-06-05 03:33:00,
2013-06-04 23:38:00,55.4,49.3,30.14,NE,45,0.0,0.4,80,0.00,,,0.00,WUHU216HW,2013-06-05 03:38:00,
2013-06-04 23:43:00,55.3,49.5,30.14,NE,45,0.7,0.7,81,0.00,,,0.00,WUHU216HW,2013-06-05 03:43:00,
2013-06-04 23:48:00,55.3,49.5,30.14,NE,45,0.4,0.9,81,0.00,,,0.00,WUHU216HW,2013-06-05 03:48:00,
2013-06-04 23:53:00,55.3,49.8,30.14,North,0,0.0,0.9,82,0.00,,,0.00,WUHU216HW,2013-06-05 03:53:00,
2013-06-04 23:58:00,55.3,49.5,30.14,North,0,0.0,0.4,81,0.00,,,0.00,WUHU216HW,2013-06-05 03:58:00,